sensor_id;sensor_type;location;lat;lon;timestamp;noise_LAeq;noise_LA_min;noise_LA_max;noise_LA01;noise_LA95
66399;Laerm;54877;51.504;3.894;2024-03-08T00:01:13;36.40;34.97;45.20;;
66399;Laerm;54877;51.504;3.894;2024-03-08T00:03:39;36.51;35.14;48.05;;
66399;Laerm;54877;51.504;3.894;2024-03-08T00:06:05;36.50;34.90;50.60;;
66399;Laerm;54877;51.504;3.894;2024-03-08T00:08:31;36.37;34.88;46.20;;
66399;Laerm;54877;51.504;3.894;2024-03-08T00:10:56;38.82;34.94;69.64;;
66399;Laerm;54877;51.504;3.894;2024-03-08T00:13:22;36.32;34.98;44.20;;
66399;Laerm;54877;51.504;3.894;2024-03-08T00:15:47;36.74;35.03;49.24;;
66399;Laerm;54877;51.504;3.894;2024-03-08T00:18:12;36.28;34.91;43.86;;
66399;Laerm;54877;51.504;3.894;2024-03-08T00:20:38;36.38;34.75;53.10;;
66399;Laerm;54877;51.504;3.894;2024-03-08T00:23:03;36.86;34.74;52.98;;
66399;Laerm;54877;51.504;3.894;2024-03-08T00:25:28;36.39;34.69;47.08;;
66399;Laerm;54877;51.504;3.894;2024-03-08T00:27:54;36.52;34.86;52.21;;
66399;Laerm;54877;51.504;3.894;2024-03-08T00:30:22;36.88;34.94;54.21;;
66399;Laerm;54877;51.504;3.894;2024-03-08T00:32:48;36.65;34.96;48.51;;
66399;Laerm;54877;51.504;3.894;2024-03-08T00:35:14;36.42;34.86;47.99;;
66399;Laerm;54877;51.504;3.894;2024-03-08T00:37:40;36.53;34.65;51.37;;
66399;Laerm;54877;51.504;3.894;2024-03-08T00:40:07;36.25;34.86;42.09;;
66399;Laerm;54877;51.504;3.894;2024-03-08T00:42:34;37.13;34.72;61.51;;
66399;Laerm;54877;51.504;3.894;2024-03-08T00:44:59;36.44;34.70;46.56;;
66399;Laerm;54877;51.504;3.894;2024-03-08T00:47:25;38.05;34.81;55.44;;
66399;Laerm;54877;51.504;3.894;2024-03-08T00:49:50;36.65;34.65;48.82;;
66399;Laerm;54877;51.504;3.894;2024-03-08T00:52:16;36.60;34.36;53.02;;
66399;Laerm;54877;51.504;3.894;2024-03-08T00:54:44;37.42;34.80;64.61;;
66399;Laerm;54877;51.504;3.894;2024-03-08T00:57:10;36.39;34.85;58.91;;
66399;Laerm;54877;51.504;3.894;2024-03-08T00:59:37;36.22;34.73;42.63;;
66399;Laerm;54877;51.504;3.894;2024-03-08T01:02:03;36.70;34.88;48.07;;
66399;Laerm;54877;51.504;3.894;2024-03-08T01:04:28;37.23;34.87;54.86;;
66399;Laerm;54877;51.504;3.894;2024-03-08T01:06:57;36.78;34.50;51.08;;
66399;Laerm;54877;51.504;3.894;2024-03-08T01:09:26;36.21;34.91;44.78;;
66399;Laerm;54877;51.504;3.894;2024-03-08T01:11:52;39.49;34.72;64.77;;
66399;Laerm;54877;51.504;3.894;2024-03-08T01:14:19;36.13;34.73;39.85;;
66399;Laerm;54877;51.504;3.894;2024-03-08T01:16:47;36.58;34.68;49.46;;
66399;Laerm;54877;51.504;3.894;2024-03-08T01:19:13;36.31;34.70;55.32;;
66399;Laerm;54877;51.504;3.894;2024-03-08T01:21:38;36.06;34.52;42.05;;
66399;Laerm;54877;51.504;3.894;2024-03-08T01:24:04;36.26;34.56;44.18;;
66399;Laerm;54877;51.504;3.894;2024-03-08T01:26:30;37.63;34.67;61.49;;
66399;Laerm;54877;51.504;3.894;2024-03-08T01:28:55;36.17;34.57;51.29;;
66399;Laerm;54877;51.504;3.894;2024-03-08T01:31:21;36.26;34.60;54.14;;
66399;Laerm;54877;51.504;3.894;2024-03-08T01:33:46;36.08;34.42;46.50;;
66399;Laerm;54877;51.504;3.894;2024-03-08T01:36:11;35.97;34.58;45.82;;
66399;Laerm;54877;51.504;3.894;2024-03-08T01:38:41;36.02;34.60;46.51;;
66399;Laerm;54877;51.504;3.894;2024-03-08T01:41:06;35.97;34.45;46.60;;
66399;Laerm;54877;51.504;3.894;2024-03-08T01:43:31;36.56;34.53;50.92;;
66399;Laerm;54877;51.504;3.894;2024-03-08T01:46:00;36.18;34.43;44.44;;
66399;Laerm;54877;51.504;3.894;2024-03-08T01:48:28;36.84;34.18;50.19;;
66399;Laerm;54877;51.504;3.894;2024-03-08T01:50:55;36.04;34.22;53.09;;
66399;Laerm;54877;51.504;3.894;2024-03-08T01:53:22;35.76;34.54;42.21;;
66399;Laerm;54877;51.504;3.894;2024-03-08T01:55:48;36.10;34.18;49.81;;
66399;Laerm;54877;51.504;3.894;2024-03-08T01:58:14;35.89;34.25;45.32;;
66399;Laerm;54877;51.504;3.894;2024-03-08T02:00:46;35.83;34.25;46.00;;
66399;Laerm;54877;51.504;3.894;2024-03-08T02:03:14;36.41;34.42;52.80;;
66399;Laerm;54877;51.504;3.894;2024-03-08T02:05:41;35.85;34.05;46.64;;
66399;Laerm;54877;51.504;3.894;2024-03-08T02:08:07;35.97;34.17;50.81;;
66399;Laerm;54877;51.504;3.894;2024-03-08T02:10:38;35.82;34.24;50.76;;
66399;Laerm;54877;51.504;3.894;2024-03-08T02:13:03;35.93;34.24;48.70;;
66399;Laerm;54877;51.504;3.894;2024-03-08T02:15:54;36.55;34.25;55.23;;
66399;Laerm;54877;51.504;3.894;2024-03-08T02:18:21;36.29;34.25;51.48;;
66399;Laerm;54877;51.504;3.894;2024-03-08T02:20:51;37.38;34.14;53.99;;
66399;Laerm;54877;51.504;3.894;2024-03-08T02:23:17;37.32;34.28;59.82;;
66399;Laerm;54877;51.504;3.894;2024-03-08T02:25:43;36.50;33.98;52.47;;
66399;Laerm;54877;51.504;3.894;2024-03-08T02:28:10;35.69;34.03;46.40;;
66399;Laerm;54877;51.504;3.894;2024-03-08T02:30:36;35.62;34.20;50.41;;
66399;Laerm;54877;51.504;3.894;2024-03-08T02:33:01;36.31;33.91;53.87;;
66399;Laerm;54877;51.504;3.894;2024-03-08T02:35:26;36.08;34.02;47.95;;
66399;Laerm;54877;51.504;3.894;2024-03-08T02:37:52;35.94;34.21;52.68;;
66399;Laerm;54877;51.504;3.894;2024-03-08T02:40:17;35.92;34.04;54.37;;
66399;Laerm;54877;51.504;3.894;2024-03-08T02:42:42;35.71;33.83;48.61;;
66399;Laerm;54877;51.504;3.894;2024-03-08T02:45:08;35.85;33.72;51.61;;
66399;Laerm;54877;51.504;3.894;2024-03-08T02:47:35;36.10;33.96;51.90;;
66399;Laerm;54877;51.504;3.894;2024-03-08T02:50:00;35.48;33.96;41.40;;
66399;Laerm;54877;51.504;3.894;2024-03-08T02:52:26;37.13;34.03;54.92;;
66399;Laerm;54877;51.504;3.894;2024-03-08T02:54:52;35.93;33.83;56.60;;
66399;Laerm;54877;51.504;3.894;2024-03-08T02:57:17;35.36;33.77;41.93;;
66399;Laerm;54877;51.504;3.894;2024-03-08T02:59:43;35.50;33.96;44.39;;
66399;Laerm;54877;51.504;3.894;2024-03-08T03:02:09;35.99;34.17;55.16;;
66399;Laerm;54877;51.504;3.894;2024-03-08T03:04:35;35.43;34.00;46.27;;
66399;Laerm;54877;51.504;3.894;2024-03-08T03:07:00;35.44;33.87;46.32;;
66399;Laerm;54877;51.504;3.894;2024-03-08T03:09:26;35.34;33.75;39.72;;
66399;Laerm;54877;51.504;3.894;2024-03-08T03:11:53;35.47;34.05;41.54;;
66399;Laerm;54877;51.504;3.894;2024-03-08T03:14:21;35.90;33.86;55.94;;
66399;Laerm;54877;51.504;3.894;2024-03-08T03:16:46;35.46;33.97;46.79;;
66399;Laerm;54877;51.504;3.894;2024-03-08T03:19:11;35.45;33.90;46.52;;
66399;Laerm;54877;51.504;3.894;2024-03-08T03:21:37;35.58;33.93;53.05;;
66399;Laerm;54877;51.504;3.894;2024-03-08T03:24:03;36.30;33.97;56.51;;
66399;Laerm;54877;51.504;3.894;2024-03-08T03:26:30;35.61;33.86;49.27;;
66399;Laerm;54877;51.504;3.894;2024-03-08T03:28:56;35.55;34.15;47.13;;
66399;Laerm;54877;51.504;3.894;2024-03-08T03:31:22;35.39;33.94;41.31;;
66399;Laerm;54877;51.504;3.894;2024-03-08T03:33:49;36.12;33.93;51.26;;
66399;Laerm;54877;51.504;3.894;2024-03-08T03:36:16;35.41;33.44;40.33;;
66399;Laerm;54877;51.504;3.894;2024-03-08T03:38:43;36.24;33.88;51.21;;
66399;Laerm;54877;51.504;3.894;2024-03-08T03:41:08;35.77;34.07;50.68;;
66399;Laerm;54877;51.504;3.894;2024-03-08T03:43:36;35.32;33.76;38.44;;
66399;Laerm;54877;51.504;3.894;2024-03-08T03:46:07;35.37;33.95;45.78;;
66399;Laerm;54877;51.504;3.894;2024-03-08T03:48:35;35.37;33.94;41.68;;
66399;Laerm;54877;51.504;3.894;2024-03-08T03:51:01;35.45;34.05;47.77;;
66399;Laerm;54877;51.504;3.894;2024-03-08T03:53:26;35.44;33.73;46.61;;
66399;Laerm;54877;51.504;3.894;2024-03-08T03:55:52;37.93;34.07;67.22;;
66399;Laerm;54877;51.504;3.894;2024-03-08T03:58:17;36.30;33.89;60.40;;
66399;Laerm;54877;51.504;3.894;2024-03-08T04:00:48;36.35;33.92;56.10;;
66399;Laerm;54877;51.504;3.894;2024-03-08T04:03:13;36.72;33.84;59.45;;
66399;Laerm;54877;51.504;3.894;2024-03-08T04:05:39;36.20;33.58;51.33;;
66399;Laerm;54877;51.504;3.894;2024-03-08T04:08:04;35.62;33.86;46.78;;
66399;Laerm;54877;51.504;3.894;2024-03-08T04:10:30;36.96;34.06;58.14;;
66399;Laerm;54877;51.504;3.894;2024-03-08T04:12:55;37.67;33.87;56.33;;
66399;Laerm;54877;51.504;3.894;2024-03-08T04:15:21;36.35;33.80;55.35;;
66399;Laerm;54877;51.504;3.894;2024-03-08T04:17:48;35.51;33.91;46.20;;
66399;Laerm;54877;51.504;3.894;2024-03-08T04:20:13;35.42;33.68;50.35;;
66399;Laerm;54877;51.504;3.894;2024-03-08T04:22:39;35.73;33.91;51.68;;
66399;Laerm;54877;51.504;3.894;2024-03-08T04:25:06;35.75;33.99;50.95;;
66399;Laerm;54877;51.504;3.894;2024-03-08T04:27:32;40.24;34.09;58.19;;
66399;Laerm;54877;51.504;3.894;2024-03-08T04:29:58;36.06;34.25;51.48;;
66399;Laerm;54877;51.504;3.894;2024-03-08T04:32:24;36.27;33.91;57.65;;
66399;Laerm;54877;51.504;3.894;2024-03-08T04:34:50;36.58;33.80;58.04;;
66399;Laerm;54877;51.504;3.894;2024-03-08T04:37:15;37.09;33.83;55.76;;
66399;Laerm;54877;51.504;3.894;2024-03-08T04:39:46;35.65;33.97;46.39;;
66399;Laerm;54877;51.504;3.894;2024-03-08T04:42:12;35.52;33.78;48.00;;
66399;Laerm;54877;51.504;3.894;2024-03-08T04:44:38;35.75;33.74;48.94;;
66399;Laerm;54877;51.504;3.894;2024-03-08T04:47:04;36.38;34.05;52.41;;
66399;Laerm;54877;51.504;3.894;2024-03-08T04:49:32;37.91;34.09;65.27;;
66399;Laerm;54877;51.504;3.894;2024-03-08T04:51:57;36.72;34.19;50.97;;
66399;Laerm;54877;51.504;3.894;2024-03-08T04:54:22;36.96;33.64;51.91;;
66399;Laerm;54877;51.504;3.894;2024-03-08T04:56:48;53.31;33.88;73.23;;
66399;Laerm;54877;51.504;3.894;2024-03-08T04:59:13;39.09;34.19;63.76;;
66399;Laerm;54877;51.504;3.894;2024-03-08T05:01:39;38.42;34.01;58.83;;
66399;Laerm;54877;51.504;3.894;2024-03-08T05:04:04;38.88;34.09;54.93;;
66399;Laerm;54877;51.504;3.894;2024-03-08T05:06:30;39.02;34.11;57.29;;
66399;Laerm;54877;51.504;3.894;2024-03-08T05:08:56;39.58;34.21;58.04;;
66399;Laerm;54877;51.504;3.894;2024-03-08T05:11:21;39.92;34.22;56.08;;
66399;Laerm;54877;51.504;3.894;2024-03-08T05:13:46;40.62;34.16;57.52;;
66399;Laerm;54877;51.504;3.894;2024-03-08T05:16:12;40.85;34.23;59.27;;
66399;Laerm;54877;51.504;3.894;2024-03-08T05:18:38;41.21;34.29;58.48;;
66399;Laerm;54877;51.504;3.894;2024-03-08T05:21:03;48.02;34.11;64.34;;
66399;Laerm;54877;51.504;3.894;2024-03-08T05:23:29;44.15;34.58;62.48;;
66399;Laerm;54877;51.504;3.894;2024-03-08T05:25:55;42.94;34.35;59.61;;
66399;Laerm;54877;51.504;3.894;2024-03-08T05:28:20;42.53;34.49;57.86;;
66399;Laerm;54877;51.504;3.894;2024-03-08T05:30:46;48.04;34.40;65.61;;
66399;Laerm;54877;51.504;3.894;2024-03-08T05:33:11;51.27;34.60;71.25;;
66399;Laerm;54877;51.504;3.894;2024-03-08T05:35:39;39.39;34.94;51.87;;
66399;Laerm;54877;51.504;3.894;2024-03-08T05:38:05;38.43;34.58;51.76;;
66399;Laerm;54877;51.504;3.894;2024-03-08T05:40:30;36.47;34.58;50.18;;
66399;Laerm;54877;51.504;3.894;2024-03-08T05:42:58;36.42;34.63;45.47;;
66399;Laerm;54877;51.504;3.894;2024-03-08T05:45:23;36.80;34.49;52.91;;
66399;Laerm;54877;51.504;3.894;2024-03-08T05:47:50;37.58;34.33;55.65;;
66399;Laerm;54877;51.504;3.894;2024-03-08T05:50:17;36.87;34.52;51.01;;
66399;Laerm;54877;51.504;3.894;2024-03-08T05:52:42;38.20;34.63;62.50;;
66399;Laerm;54877;51.504;3.894;2024-03-08T05:55:08;37.05;34.66;54.82;;
66399;Laerm;54877;51.504;3.894;2024-03-08T05:57:35;37.08;34.80;56.26;;
66399;Laerm;54877;51.504;3.894;2024-03-08T06:00:03;44.67;34.69;62.86;;
66399;Laerm;54877;51.504;3.894;2024-03-08T06:02:29;36.74;34.56;49.82;;
66399;Laerm;54877;51.504;3.894;2024-03-08T06:04:54;37.27;34.81;48.18;;
66399;Laerm;54877;51.504;3.894;2024-03-08T06:07:19;47.41;34.82;68.55;;
66399;Laerm;54877;51.504;3.894;2024-03-08T06:09:45;38.77;34.97;57.51;;
66399;Laerm;54877;51.504;3.894;2024-03-08T06:12:11;48.70;35.00;67.90;;
66399;Laerm;54877;51.504;3.894;2024-03-08T06:14:37;48.50;35.09;68.84;;
66399;Laerm;54877;51.504;3.894;2024-03-08T06:17:03;52.16;35.07;71.21;;
66399;Laerm;54877;51.504;3.894;2024-03-08T06:19:30;49.72;34.96;72.60;;
66399;Laerm;54877;51.504;3.894;2024-03-08T06:21:55;48.73;35.34;67.36;;
66399;Laerm;54877;51.504;3.894;2024-03-08T06:24:21;37.47;35.27;48.81;;
66399;Laerm;54877;51.504;3.894;2024-03-08T06:26:46;50.07;35.17;70.19;;
66399;Laerm;54877;51.504;3.894;2024-03-08T06:29:11;39.87;35.03;61.88;;
66399;Laerm;54877;51.504;3.894;2024-03-08T06:31:38;39.95;35.31;53.76;;
66399;Laerm;54877;51.504;3.894;2024-03-08T06:34:04;39.91;35.27;58.26;;
66399;Laerm;54877;51.504;3.894;2024-03-08T06:36:32;49.61;34.89;68.77;;
66399;Laerm;54877;51.504;3.894;2024-03-08T06:38:58;52.17;35.05;70.12;;
66399;Laerm;54877;51.504;3.894;2024-03-08T06:41:24;38.90;35.09;51.50;;
66399;Laerm;54877;51.504;3.894;2024-03-08T06:43:49;44.43;35.10;60.48;;
66399;Laerm;54877;51.504;3.894;2024-03-08T06:46:17;54.49;35.42;70.95;;
66399;Laerm;54877;51.504;3.894;2024-03-08T06:48:42;52.02;35.62;72.40;;
66399;Laerm;54877;51.504;3.894;2024-03-08T06:51:08;38.55;35.32;54.88;;
66399;Laerm;54877;51.504;3.894;2024-03-08T06:53:33;50.02;35.19;65.35;;
66399;Laerm;54877;51.504;3.894;2024-03-08T06:56:00;44.71;35.21;64.02;;
66399;Laerm;54877;51.504;3.894;2024-03-08T06:58:26;51.67;35.10;69.05;;
66399;Laerm;54877;51.504;3.894;2024-03-08T07:00:52;54.36;35.06;72.24;;
66399;Laerm;54877;51.504;3.894;2024-03-08T07:03:18;43.01;35.59;63.74;;
66399;Laerm;54877;51.504;3.894;2024-03-08T07:05:44;38.17;35.29;53.51;;
66399;Laerm;54877;51.504;3.894;2024-03-08T07:08:09;48.46;35.25;67.63;;
66399;Laerm;54877;51.504;3.894;2024-03-08T07:10:35;41.74;35.18;62.14;;
66399;Laerm;54877;51.504;3.894;2024-03-08T07:13:02;38.67;35.37;54.66;;
66399;Laerm;54877;51.504;3.894;2024-03-08T07:15:28;52.35;35.71;67.85;;
66399;Laerm;54877;51.504;3.894;2024-03-08T07:17:53;46.35;35.87;66.43;;
66399;Laerm;54877;51.504;3.894;2024-03-08T07:20:19;52.56;35.82;67.53;;
66399;Laerm;54877;51.504;3.894;2024-03-08T07:22:45;50.37;36.08;71.29;;
66399;Laerm;54877;51.504;3.894;2024-03-08T07:25:13;43.07;36.00;63.20;;
66399;Laerm;54877;51.504;3.894;2024-03-08T07:27:52;40.43;35.49;60.84;;
66399;Laerm;54877;51.504;3.894;2024-03-08T07:30:18;41.00;35.72;61.20;;
66399;Laerm;54877;51.504;3.894;2024-03-08T07:33:02;50.64;35.58;71.14;;
66399;Laerm;54877;51.504;3.894;2024-03-08T07:35:30;52.07;35.97;70.34;;
66399;Laerm;54877;51.504;3.894;2024-03-08T07:37:56;48.79;35.60;71.14;;
66399;Laerm;54877;51.504;3.894;2024-03-08T07:40:21;53.17;35.47;70.51;;
66399;Laerm;54877;51.504;3.894;2024-03-08T07:42:48;52.21;35.52;67.94;;
66399;Laerm;54877;51.504;3.894;2024-03-08T07:45:13;42.04;35.35;57.73;;
66399;Laerm;54877;51.504;3.894;2024-03-08T07:47:39;52.45;35.94;71.21;;
66399;Laerm;54877;51.504;3.894;2024-03-08T07:50:05;47.09;35.45;66.07;;
66399;Laerm;54877;51.504;3.894;2024-03-08T07:52:33;47.06;35.29;63.61;;
66399;Laerm;54877;51.504;3.894;2024-03-08T07:54:58;49.85;35.36;66.07;;
66399;Laerm;54877;51.504;3.894;2024-03-08T07:57:24;46.14;35.27;69.61;;
66399;Laerm;54877;51.504;3.894;2024-03-08T07:59:51;48.15;35.30;66.37;;
66399;Laerm;54877;51.504;3.894;2024-03-08T08:02:16;51.41;35.11;71.54;;
66399;Laerm;54877;51.504;3.894;2024-03-08T08:04:41;39.53;34.81;58.35;;
66399;Laerm;54877;51.504;3.894;2024-03-08T08:07:09;51.82;34.18;71.57;;
66399;Laerm;54877;51.504;3.894;2024-03-08T08:09:35;40.65;34.80;60.48;;
66399;Laerm;54877;51.504;3.894;2024-03-08T08:12:00;40.46;35.49;66.13;;
66399;Laerm;54877;51.504;3.894;2024-03-08T08:14:28;52.72;36.04;68.76;;
66399;Laerm;54877;51.504;3.894;2024-03-08T08:16:54;43.37;35.55;63.71;;
66399;Laerm;54877;51.504;3.894;2024-03-08T08:19:21;38.99;35.20;58.67;;
66399;Laerm;54877;51.504;3.894;2024-03-08T08:21:46;49.81;35.46;68.49;;
66399;Laerm;54877;51.504;3.894;2024-03-08T08:24:11;42.52;34.90;62.03;;
66399;Laerm;54877;51.504;3.894;2024-03-08T08:26:37;47.75;35.56;66.60;;
66399;Laerm;54877;51.504;3.894;2024-03-08T08:29:02;45.95;35.03;65.88;;
66399;Laerm;54877;51.504;3.894;2024-03-08T08:31:28;49.97;34.23;67.70;;
66399;Laerm;54877;51.504;3.894;2024-03-08T08:33:53;49.71;34.51;66.98;;
66399;Laerm;54877;51.504;3.894;2024-03-08T08:36:26;41.27;35.07;56.99;;
66399;Laerm;54877;51.504;3.894;2024-03-08T08:38:54;52.33;34.73;70.49;;
66399;Laerm;54877;51.504;3.894;2024-03-08T08:41:21;39.22;34.73;63.31;;
66399;Laerm;54877;51.504;3.894;2024-03-08T08:43:47;39.67;34.73;58.34;;
66399;Laerm;54877;51.504;3.894;2024-03-08T08:46:17;41.71;35.18;65.95;;
66399;Laerm;54877;51.504;3.894;2024-03-08T08:48:42;37.36;34.33;51.82;;
66399;Laerm;54877;51.504;3.894;2024-03-08T08:51:13;38.82;34.52;57.57;;
66399;Laerm;54877;51.504;3.894;2024-03-08T08:53:39;52.98;34.92;68.99;;
66399;Laerm;54877;51.504;3.894;2024-03-08T08:56:08;42.40;34.67;61.09;;
66399;Laerm;54877;51.504;3.894;2024-03-08T08:58:34;42.25;35.33;61.72;;
66399;Laerm;54877;51.504;3.894;2024-03-08T09:01:00;53.34;36.20;82.28;;
66399;Laerm;54877;51.504;3.894;2024-03-08T09:03:26;48.10;34.42;67.34;;
66399;Laerm;54877;51.504;3.894;2024-03-08T09:05:53;38.68;34.92;53.89;;
66399;Laerm;54877;51.504;3.894;2024-03-08T09:08:18;41.92;35.40;63.51;;
66399;Laerm;54877;51.504;3.894;2024-03-08T09:10:45;38.86;34.61;57.69;;
66399;Laerm;54877;51.504;3.894;2024-03-08T09:13:10;42.60;35.43;62.08;;
66399;Laerm;54877;51.504;3.894;2024-03-08T09:15:36;45.42;35.04;73.97;;
66399;Laerm;54877;51.504;3.894;2024-03-08T09:18:05;52.36;36.07;69.42;;
66399;Laerm;54877;51.504;3.894;2024-03-08T09:20:31;47.18;35.41;63.14;;
66399;Laerm;54877;51.504;3.894;2024-03-08T09:22:56;50.53;35.00;68.70;;
66399;Laerm;54877;51.504;3.894;2024-03-08T09:25:22;42.57;35.71;63.22;;
66399;Laerm;54877;51.504;3.894;2024-03-08T09:27:47;44.83;36.04;66.77;;
66399;Laerm;54877;51.504;3.894;2024-03-08T09:30:13;42.50;35.85;57.24;;
66399;Laerm;54877;51.504;3.894;2024-03-08T09:32:40;53.89;35.59;73.16;;
66399;Laerm;54877;51.504;3.894;2024-03-08T09:35:06;47.56;35.73;72.90;;
66399;Laerm;54877;51.504;3.894;2024-03-08T09:37:33;50.19;35.56;71.70;;
66399;Laerm;54877;51.504;3.894;2024-03-08T09:39:59;50.20;35.62;78.24;;
66399;Laerm;54877;51.504;3.894;2024-03-08T09:42:24;43.15;35.20;65.16;;
66399;Laerm;54877;51.504;3.894;2024-03-08T09:44:50;48.57;35.15;66.55;;
66399;Laerm;54877;51.504;3.894;2024-03-08T09:47:17;43.69;35.24;66.54;;
66399;Laerm;54877;51.504;3.894;2024-03-08T09:49:43;51.96;35.14;71.42;;
66399;Laerm;54877;51.504;3.894;2024-03-08T09:52:08;49.33;35.35;72.44;;
66399;Laerm;54877;51.504;3.894;2024-03-08T09:54:35;42.90;36.00;62.40;;
66399;Laerm;54877;51.504;3.894;2024-03-08T09:57:00;63.41;36.51;95.87;;
66399;Laerm;54877;51.504;3.894;2024-03-08T09:59:29;42.65;35.72;67.45;;
66399;Laerm;54877;51.504;3.894;2024-03-08T10:01:54;57.62;35.68;86.97;;
66399;Laerm;54877;51.504;3.894;2024-03-08T10:04:24;47.99;35.63;72.50;;
66399;Laerm;54877;51.504;3.894;2024-03-08T10:06:51;43.03;34.83;65.97;;
66399;Laerm;54877;51.504;3.894;2024-03-08T10:09:17;41.77;35.30;61.57;;
66399;Laerm;54877;51.504;3.894;2024-03-08T10:11:42;62.03;35.84;82.27;;
66399;Laerm;54877;51.504;3.894;2024-03-08T10:14:11;43.44;35.65;60.24;;
66399;Laerm;54877;51.504;3.894;2024-03-08T10:16:38;44.62;35.02;68.24;;
66399;Laerm;54877;51.504;3.894;2024-03-08T10:19:03;51.78;34.93;70.91;;
66399;Laerm;54877;51.504;3.894;2024-03-08T10:21:31;50.28;34.67;75.77;;
66399;Laerm;54877;51.504;3.894;2024-03-08T10:23:58;40.72;35.49;64.40;;
66399;Laerm;54877;51.504;3.894;2024-03-08T10:26:24;47.93;35.80;73.95;;
66399;Laerm;54877;51.504;3.894;2024-03-08T10:28:51;48.04;35.90;70.68;;
66399;Laerm;54877;51.504;3.894;2024-03-08T10:31:18;55.03;35.64;73.01;;
66399;Laerm;54877;51.504;3.894;2024-03-08T10:33:45;52.60;35.83;68.58;;
66399;Laerm;54877;51.504;3.894;2024-03-08T10:36:11;51.64;36.14;70.50;;
66399;Laerm;54877;51.504;3.894;2024-03-08T10:38:38;48.74;36.40;72.52;;
66399;Laerm;54877;51.504;3.894;2024-03-08T10:41:06;41.24;35.95;57.10;;
66399;Laerm;54877;51.504;3.894;2024-03-08T10:43:40;49.06;36.48;71.46;;
66399;Laerm;54877;51.504;3.894;2024-03-08T10:46:25;46.44;36.83;73.15;;
66399;Laerm;54877;51.504;3.894;2024-03-08T10:48:55;46.49;36.38;66.95;;
66399;Laerm;54877;51.504;3.894;2024-03-08T10:51:23;47.75;36.19;67.17;;
66399;Laerm;54877;51.504;3.894;2024-03-08T10:53:50;54.18;35.22;75.10;;
66399;Laerm;54877;51.504;3.894;2024-03-08T10:56:17;43.98;34.98;69.78;;
66399;Laerm;54877;51.504;3.894;2024-03-08T10:58:42;57.53;36.08;79.29;;
66399;Laerm;54877;51.504;3.894;2024-03-08T11:01:09;54.05;37.51;79.70;;
66399;Laerm;54877;51.504;3.894;2024-03-08T11:03:47;51.02;36.28;81.66;;
66399;Laerm;54877;51.504;3.894;2024-03-08T11:06:16;62.60;36.40;78.91;;
66399;Laerm;54877;51.504;3.894;2024-03-08T11:08:43;51.55;35.72;76.40;;
66399;Laerm;54877;51.504;3.894;2024-03-08T11:11:31;49.82;36.60;65.89;;
66399;Laerm;54877;51.504;3.894;2024-03-08T11:13:58;49.50;36.06;71.91;;
66399;Laerm;54877;51.504;3.894;2024-03-08T11:19:04;51.75;36.08;73.34;;
66399;Laerm;54877;51.504;3.894;2024-03-08T11:21:34;48.07;37.42;64.31;;
66399;Laerm;54877;51.504;3.894;2024-03-08T11:24:06;49.18;37.64;70.43;;
66399;Laerm;54877;51.504;3.894;2024-03-08T11:26:31;51.22;36.87;76.52;;
66399;Laerm;54877;51.504;3.894;2024-03-08T11:29:32;45.35;36.16;65.61;;
66399;Laerm;54877;51.504;3.894;2024-03-08T11:34:30;44.87;36.22;71.22;;
66399;Laerm;54877;51.504;3.894;2024-03-08T11:36:55;56.88;36.29;83.04;;
66399;Laerm;54877;51.504;3.894;2024-03-08T11:39:22;51.96;36.06;70.96;;
66399;Laerm;54877;51.504;3.894;2024-03-08T11:41:49;49.68;36.18;64.79;;
66399;Laerm;54877;51.504;3.894;2024-03-08T11:44:14;50.83;35.69;72.05;;
66399;Laerm;54877;51.504;3.894;2024-03-08T11:46:42;53.24;35.92;70.57;;
66399;Laerm;54877;51.504;3.894;2024-03-08T11:49:12;48.43;35.46;70.11;;
66399;Laerm;54877;51.504;3.894;2024-03-08T11:51:38;53.82;38.84;76.71;;
66399;Laerm;54877;51.504;3.894;2024-03-08T11:54:03;46.82;36.18;66.16;;
66399;Laerm;54877;51.504;3.894;2024-03-08T11:56:28;54.91;36.26;67.30;;
66399;Laerm;54877;51.504;3.894;2024-03-08T11:58:55;53.64;36.90;68.25;;
66399;Laerm;54877;51.504;3.894;2024-03-08T12:01:24;56.18;37.29;74.64;;
66399;Laerm;54877;51.504;3.894;2024-03-08T12:03:56;58.65;35.86;77.29;;
66399;Laerm;54877;51.504;3.894;2024-03-08T12:06:24;45.82;35.98;70.69;;
66399;Laerm;54877;51.504;3.894;2024-03-08T12:08:50;50.95;36.47;70.21;;
66399;Laerm;54877;51.504;3.894;2024-03-08T12:11:17;53.33;36.09;68.87;;
66399;Laerm;54877;51.504;3.894;2024-03-08T12:13:44;38.86;35.55;53.51;;
66399;Laerm;54877;51.504;3.894;2024-03-08T12:16:12;50.72;36.64;70.39;;
66399;Laerm;54877;51.504;3.894;2024-03-08T12:18:38;48.76;35.49;66.85;;
66399;Laerm;54877;51.504;3.894;2024-03-08T12:21:08;50.77;36.33;73.03;;
66399;Laerm;54877;51.504;3.894;2024-03-08T12:23:35;46.83;35.58;73.25;;
66399;Laerm;54877;51.504;3.894;2024-03-08T12:26:23;52.02;35.59;73.86;;
66399;Laerm;54877;51.504;3.894;2024-03-08T12:28:48;57.01;35.90;76.86;;
66399;Laerm;54877;51.504;3.894;2024-03-08T12:31:16;50.14;36.49;77.24;;
66399;Laerm;54877;51.504;3.894;2024-03-08T12:33:52;50.99;36.88;69.78;;
66399;Laerm;54877;51.504;3.894;2024-03-08T12:36:19;46.57;35.75;66.00;;
66399;Laerm;54877;51.504;3.894;2024-03-08T12:38:48;54.62;35.72;73.64;;
66399;Laerm;54877;51.504;3.894;2024-03-08T12:41:18;50.96;35.58;70.99;;
66399;Laerm;54877;51.504;3.894;2024-03-08T12:43:44;56.46;38.25;71.16;;
66399;Laerm;54877;51.504;3.894;2024-03-08T12:46:19;47.11;36.10;70.00;;
66399;Laerm;54877;51.504;3.894;2024-03-08T12:48:51;52.73;36.31;72.32;;
66399;Laerm;54877;51.504;3.894;2024-03-08T12:51:19;55.32;36.63;72.72;;
66399;Laerm;54877;51.504;3.894;2024-03-08T12:53:46;45.30;36.49;64.40;;
66399;Laerm;54877;51.504;3.894;2024-03-08T12:56:13;56.68;37.49;73.72;;
66399;Laerm;54877;51.504;3.894;2024-03-08T12:58:39;56.69;36.33;74.43;;
66399;Laerm;54877;51.504;3.894;2024-03-08T13:01:05;52.27;36.13;72.19;;
66399;Laerm;54877;51.504;3.894;2024-03-08T13:03:36;55.25;36.27;74.30;;
66399;Laerm;54877;51.504;3.894;2024-03-08T13:06:03;52.89;36.64;74.73;;
66399;Laerm;54877;51.504;3.894;2024-03-08T13:08:34;58.50;37.09;84.91;;
66399;Laerm;54877;51.504;3.894;2024-03-08T13:11:01;46.98;36.85;68.71;;
66399;Laerm;54877;51.504;3.894;2024-03-08T13:13:26;54.97;37.33;81.67;;
66399;Laerm;54877;51.504;3.894;2024-03-08T13:15:52;55.45;37.12;73.52;;
66399;Laerm;54877;51.504;3.894;2024-03-08T13:18:18;48.76;36.90;69.48;;
66399;Laerm;54877;51.504;3.894;2024-03-08T13:20:43;54.34;36.50;77.92;;
66399;Laerm;54877;51.504;3.894;2024-03-08T13:23:14;50.01;36.28;68.08;;
66399;Laerm;54877;51.504;3.894;2024-03-08T13:25:39;48.95;36.79;67.22;;
66399;Laerm;54877;51.504;3.894;2024-03-08T13:28:05;55.53;36.45;74.27;;
66399;Laerm;54877;51.504;3.894;2024-03-08T13:30:31;54.16;36.46;70.28;;
66399;Laerm;54877;51.504;3.894;2024-03-08T13:32:57;46.81;36.45;67.81;;
66399;Laerm;54877;51.504;3.894;2024-03-08T13:35:22;43.95;36.33;66.58;;
66399;Laerm;54877;51.504;3.894;2024-03-08T13:37:52;55.52;37.00;76.03;;
66399;Laerm;54877;51.504;3.894;2024-03-08T13:40:18;53.95;36.83;79.06;;
66399;Laerm;54877;51.504;3.894;2024-03-08T13:42:47;52.23;36.59;70.27;;
66399;Laerm;54877;51.504;3.894;2024-03-08T13:45:14;55.19;36.73;74.21;;
66399;Laerm;54877;51.504;3.894;2024-03-08T13:47:42;48.84;36.66;74.53;;